sensor_id;sensor_type;location;lat;lon;timestamp;temperature;humidity
51500;DHT22;39101;53.478;6.158;2023-04-07T00:01:58;6.90;99.90
51500;DHT22;39101;53.478;6.158;2023-04-07T00:04:24;6.80;99.90
51500;DHT22;39101;53.478;6.158;2023-04-07T00:06:49;6.70;99.90
51500;DHT22;39101;53.478;6.158;2023-04-07T00:09:15;6.70;99.90
51500;DHT22;39101;53.478;6.158;2023-04-07T00:11:41;6.80;99.90
51500;DHT22;39101;53.478;6.158;2023-04-07T00:14:06;6.60;99.90
51500;DHT22;39101;53.478;6.158;2023-04-07T00:16:32;6.80;99.90
51500;DHT22;39101;53.478;6.158;2023-04-07T00:18:58;6.60;99.90
51500;DHT22;39101;53.478;6.158;2023-04-07T00:21:23;6.70;99.90
51500;DHT22;39101;53.478;6.158;2023-04-07T00:23:49;6.60;99.90
51500;DHT22;39101;53.478;6.158;2023-04-07T00:26:15;6.70;99.90
51500;DHT22;39101;53.478;6.158;2023-04-07T00:28:41;6.60;99.90
51500;DHT22;39101;53.478;6.158;2023-04-07T00:31:06;6.80;99.90
51500;DHT22;39101;53.478;6.158;2023-04-07T00:33:32;6.80;99.90
51500;DHT22;39101;53.478;6.158;2023-04-07T00:35:58;6.60;99.90
51500;DHT22;39101;53.478;6.158;2023-04-07T00:38:23;6.70;99.90
51500;DHT22;39101;53.478;6.158;2023-04-07T00:40:49;6.60;99.90
51500;DHT22;39101;53.478;6.158;2023-04-07T00:43:15;6.70;99.90
51500;DHT22;39101;53.478;6.158;2023-04-07T00:45:41;6.50;99.90
51500;DHT22;39101;53.478;6.158;2023-04-07T00:48:07;6.80;99.90
51500;DHT22;39101;53.478;6.158;2023-04-07T00:50:34;6.50;99.90
51500;DHT22;39101;53.478;6.158;2023-04-07T00:53:00;6.60;99.90
51500;DHT22;39101;53.478;6.158;2023-04-07T00:55:27;6.80;99.90
51500;DHT22;39101;53.478;6.158;2023-04-07T00:57:52;6.70;99.90
51500;DHT22;39101;53.478;6.158;2023-04-07T01:00:18;6.90;99.90
51500;DHT22;39101;53.478;6.158;2023-04-07T01:02:45;6.80;99.90
51500;DHT22;39101;53.478;6.158;2023-04-07T01:05:16;6.80;99.90
51500;DHT22;39101;53.478;6.158;2023-04-07T01:08:13;6.80;99.90
51500;DHT22;39101;53.478;6.158;2023-04-07T01:10:49;6.80;99.90
51500;DHT22;39101;53.478;6.158;2023-04-07T01:13:35;6.70;99.90
51500;DHT22;39101;53.478;6.158;2023-04-07T01:16:06;6.80;99.90
51500;DHT22;39101;53.478;6.158;2023-04-07T01:18:35;6.60;99.90
51500;DHT22;39101;53.478;6.158;2023-04-07T01:21:05;6.60;99.90
51500;DHT22;39101;53.478;6.158;2023-04-07T01:23:42;6.80;99.90
51500;DHT22;39101;53.478;6.158;2023-04-07T01:26:20;6.70;99.90
51500;DHT22;39101;53.478;6.158;2023-04-07T01:31:25;6.90;99.90
51500;DHT22;39101;53.478;6.158;2023-04-07T01:33:54;6.60;99.90
51500;DHT22;39101;53.478;6.158;2023-04-07T01:36:23;6.70;99.90
51500;DHT22;39101;53.478;6.158;2023-04-07T01:38:52;6.60;99.90
51500;DHT22;39101;53.478;6.158;2023-04-07T01:41:19;6.80;99.90
51500;DHT22;39101;53.478;6.158;2023-04-07T01:43:46;6.60;99.90
51500;DHT22;39101;53.478;6.158;2023-04-07T01:46:13;6.60;99.90
51500;DHT22;39101;53.478;6.158;2023-04-07T01:48:39;6.80;99.90
51500;DHT22;39101;53.478;6.158;2023-04-07T01:51:07;6.90;99.90
51500;DHT22;39101;53.478;6.158;2023-04-07T01:53:34;6.60;99.90
51500;DHT22;39101;53.478;6.158;2023-04-07T01:56:02;6.80;99.90
51500;DHT22;39101;53.478;6.158;2023-04-07T01:58:28;6.60;99.90
51500;DHT22;39101;53.478;6.158;2023-04-07T02:00:54;6.60;99.90
51500;DHT22;39101;53.478;6.158;2023-04-07T02:03:39;6.90;99.90
51500;DHT22;39101;53.478;6.158;2023-04-07T02:06:06;6.90;99.90
51500;DHT22;39101;53.478;6.158;2023-04-07T02:08:35;6.80;99.90
51500;DHT22;39101;53.478;6.158;2023-04-07T02:11:02;6.60;99.90
51500;DHT22;39101;53.478;6.158;2023-04-07T02:13:29;6.70;99.90
51500;DHT22;39101;53.478;6.158;2023-04-07T02:15:57;6.60;99.90
51500;DHT22;39101;53.478;6.158;2023-04-07T02:18:24;6.70;99.90
51500;DHT22;39101;53.478;6.158;2023-04-07T02:20:52;6.70;99.90
51500;DHT22;39101;53.478;6.158;2023-04-07T02:23:18;6.60;99.90
51500;DHT22;39101;53.478;6.158;2023-04-07T02:25:44;6.70;99.90
51500;DHT22;39101;53.478;6.158;2023-04-07T02:28:09;6.90;99.90
51500;DHT22;39101;53.478;6.158;2023-04-07T02:30:35;6.70;99.90
51500;DHT22;39101;53.478;6.158;2023-04-07T02:33:01;6.60;99.90
51500;DHT22;39101;53.478;6.158;2023-04-07T02:35:27;6.70;99.90
51500;DHT22;39101;53.478;6.158;2023-04-07T02:37:53;6.80;99.90
51500;DHT22;39101;53.478;6.158;2023-04-07T02:40:18;6.90;99.90
51500;DHT22;39101;53.478;6.158;2023-04-07T02:42:45;6.60;99.90
51500;DHT22;39101;53.478;6.158;2023-04-07T02:45:11;6.70;99.90
51500;DHT22;39101;53.478;6.158;2023-04-07T02:47:38;6.90;99.90
51500;DHT22;39101;53.478;6.158;2023-04-07T02:50:04;6.70;99.90
51500;DHT22;39101;53.478;6.158;2023-04-07T02:52:30;6.90;99.90
51500;DHT22;39101;53.478;6.158;2023-04-07T02:54:56;6.80;99.90
51500;DHT22;39101;53.478;6.158;2023-04-07T02:57:21;6.80;99.90
51500;DHT22;39101;53.478;6.158;2023-04-07T02:59:47;6.90;99.90
51500;DHT22;39101;53.478;6.158;2023-04-07T03:02:13;6.70;99.90
51500;DHT22;39101;53.478;6.158;2023-04-07T03:04:38;6.70;99.90
51500;DHT22;39101;53.478;6.158;2023-04-07T03:07:04;6.90;99.90
51500;DHT22;39101;53.478;6.158;2023-04-07T03:09:30;6.70;99.90
51500;DHT22;39101;53.478;6.158;2023-04-07T03:11:55;6.60;99.90
51500;DHT22;39101;53.478;6.158;2023-04-07T03:14:21;6.60;99.90
51500;DHT22;39101;53.478;6.158;2023-04-07T03:16:47;6.90;99.90
51500;DHT22;39101;53.478;6.158;2023-04-07T03:19:12;6.80;99.90
51500;DHT22;39101;53.478;6.158;2023-04-07T03:21:38;6.70;99.90
51500;DHT22;39101;53.478;6.158;2023-04-07T03:24:05;6.70;99.90
51500;DHT22;39101;53.478;6.158;2023-04-07T03:26:31;6.80;99.90
51500;DHT22;39101;53.478;6.158;2023-04-07T03:28:57;6.90;99.90
51500;DHT22;39101;53.478;6.158;2023-04-07T03:31:23;6.70;99.90
51500;DHT22;39101;53.478;6.158;2023-04-07T03:33:49;6.60;99.90
51500;DHT22;39101;53.478;6.158;2023-04-07T03:36:15;6.70;99.90
51500;DHT22;39101;53.478;6.158;2023-04-07T03:38:43;6.90;99.90
51500;DHT22;39101;53.478;6.158;2023-04-07T03:41:09;6.90;99.90
51500;DHT22;39101;53.478;6.158;2023-04-07T03:43:34;6.70;99.90
51500;DHT22;39101;53.478;6.158;2023-04-07T03:46:00;6.70;99.90
51500;DHT22;39101;53.478;6.158;2023-04-07T03:48:26;6.80;99.90
51500;DHT22;39101;53.478;6.158;2023-04-07T03:50:51;6.70;99.90
51500;DHT22;39101;53.478;6.158;2023-04-07T03:53:17;6.60;99.90
51500;DHT22;39101;53.478;6.158;2023-04-07T03:55:44;6.60;99.90
51500;DHT22;39101;53.478;6.158;2023-04-07T03:58:10;6.90;99.90
51500;DHT22;39101;53.478;6.158;2023-04-07T04:00:36;6.90;99.90
51500;DHT22;39101;53.478;6.158;2023-04-07T04:03:02;6.90;99.90
51500;DHT22;39101;53.478;6.158;2023-04-07T04:05:27;6.60;99.90
51500;DHT22;39101;53.478;6.158;2023-04-07T04:07:53;6.90;99.90
51500;DHT22;39101;53.478;6.158;2023-04-07T04:10:19;6.70;99.90
51500;DHT22;39101;53.478;6.158;2023-04-07T04:12:46;6.80;99.90
51500;DHT22;39101;53.478;6.158;2023-04-07T04:15:13;6.80;99.90
51500;DHT22;39101;53.478;6.158;2023-04-07T04:17:39;6.80;99.90
51500;DHT22;39101;53.478;6.158;2023-04-07T04:20:06;6.60;99.90
51500;DHT22;39101;53.478;6.158;2023-04-07T04:22:32;6.80;99.90
51500;DHT22;39101;53.478;6.158;2023-04-07T04:24:58;6.90;99.90
51500;DHT22;39101;53.478;6.158;2023-04-07T04:27:24;6.70;99.90
51500;DHT22;39101;53.478;6.158;2023-04-07T04:29:49;6.70;99.90
51500;DHT22;39101;53.478;6.158;2023-04-07T04:32:16;6.60;99.90
51500;DHT22;39101;53.478;6.158;2023-04-07T04:34:42;6.70;99.90
51500;DHT22;39101;53.478;6.158;2023-04-07T04:37:08;6.70;99.90
51500;DHT22;39101;53.478;6.158;2023-04-07T04:39:34;6.50;99.90
51500;DHT22;39101;53.478;6.158;2023-04-07T04:42:00;6.80;99.90
51500;DHT22;39101;53.478;6.158;2023-04-07T04:44:26;6.60;99.90
51500;DHT22;39101;53.478;6.158;2023-04-07T04:46:52;6.50;99.90
51500;DHT22;39101;53.478;6.158;2023-04-07T04:49:18;6.80;99.90
51500;DHT22;39101;53.478;6.158;2023-04-07T04:51:44;6.60;99.90
51500;DHT22;39101;53.478;6.158;2023-04-07T04:54:10;6.50;99.90
51500;DHT22;39101;53.478;6.158;2023-04-07T04:56:36;6.60;99.90
51500;DHT22;39101;53.478;6.158;2023-04-07T04:59:03;6.40;99.90
51500;DHT22;39101;53.478;6.158;2023-04-07T05:01:28;6.40;99.90
51500;DHT22;39101;53.478;6.158;2023-04-07T05:03:54;6.50;99.90
51500;DHT22;39101;53.478;6.158;2023-04-07T05:06:19;6.60;99.90
51500;DHT22;39101;53.478;6.158;2023-04-07T05:08:45;6.50;99.90
51500;DHT22;39101;53.478;6.158;2023-04-07T05:11:11;6.70;99.90
51500;DHT22;39101;53.478;6.158;2023-04-07T05:13:37;6.50;99.90
51500;DHT22;39101;53.478;6.158;2023-04-07T05:16:03;6.70;99.90
51500;DHT22;39101;53.478;6.158;2023-04-07T05:18:29;6.40;99.90
51500;DHT22;39101;53.478;6.158;2023-04-07T05:20:55;6.60;99.90
51500;DHT22;39101;53.478;6.158;2023-04-07T05:23:21;6.70;99.90
51500;DHT22;39101;53.478;6.158;2023-04-07T05:25:46;6.70;99.90
51500;DHT22;39101;53.478;6.158;2023-04-07T05:28:12;6.60;99.90
51500;DHT22;39101;53.478;6.158;2023-04-07T05:30:38;6.70;99.90
51500;DHT22;39101;53.478;6.158;2023-04-07T05:33:04;6.50;99.90
51500;DHT22;39101;53.478;6.158;2023-04-07T05:35:29;6.50;99.90
51500;DHT22;39101;53.478;6.158;2023-04-07T05:37:55;6.50;99.90
51500;DHT22;39101;53.478;6.158;2023-04-07T05:40:21;6.80;99.90
51500;DHT22;39101;53.478;6.158;2023-04-07T05:42:47;6.70;99.90
51500;DHT22;39101;53.478;6.158;2023-04-07T05:45:12;6.70;99.90
51500;DHT22;39101;53.478;6.158;2023-04-07T05:47:38;6.50;99.90
51500;DHT22;39101;53.478;6.158;2023-04-07T05:50:05;6.70;99.90
51500;DHT22;39101;53.478;6.158;2023-04-07T05:52:31;6.80;99.90
51500;DHT22;39101;53.478;6.158;2023-04-07T05:54:57;6.50;99.90
51500;DHT22;39101;53.478;6.158;2023-04-07T05:57:22;6.80;99.90
51500;DHT22;39101;53.478;6.158;2023-04-07T05:59:48;6.60;99.90
51500;DHT22;39101;53.478;6.158;2023-04-07T06:02:14;6.80;99.90
51500;DHT22;39101;53.478;6.158;2023-04-07T06:04:39;6.80;99.90
51500;DHT22;39101;53.478;6.158;2023-04-07T06:07:06;6.70;99.90
51500;DHT22;39101;53.478;6.158;2023-04-07T06:09:31;6.60;99.90
51500;DHT22;39101;53.478;6.158;2023-04-07T06:11:57;6.60;99.90
51500;DHT22;39101;53.478;6.158;2023-04-07T06:14:24;6.60;99.90
51500;DHT22;39101;53.478;6.158;2023-04-07T06:16:50;6.80;99.90
51500;DHT22;39101;53.478;6.158;2023-04-07T06:19:16;7.00;99.90
51500;DHT22;39101;53.478;6.158;2023-04-07T06:21:42;6.80;99.90
51500;DHT22;39101;53.478;6.158;2023-04-07T06:24:07;6.60;99.90
51500;DHT22;39101;53.478;6.158;2023-04-07T06:26:33;6.80;99.90
51500;DHT22;39101;53.478;6.158;2023-04-07T06:28:59;6.70;99.90
51500;DHT22;39101;53.478;6.158;2023-04-07T06:31:25;6.90;99.90
51500;DHT22;39101;53.478;6.158;2023-04-07T06:33:51;6.70;99.90
51500;DHT22;39101;53.478;6.158;2023-04-07T06:36:17;6.90;99.90
51500;DHT22;39101;53.478;6.158;2023-04-07T06:38:43;6.70;99.90
51500;DHT22;39101;53.478;6.158;2023-04-07T06:41:09;6.90;99.90
51500;DHT22;39101;53.478;6.158;2023-04-07T06:43:45;6.70;99.90
51500;DHT22;39101;53.478;6.158;2023-04-07T06:46:11;6.80;99.90
51500;DHT22;39101;53.478;6.158;2023-04-07T06:48:36;6.90;99.90
51500;DHT22;39101;53.478;6.158;2023-04-07T06:51:02;6.90;99.90
51500;DHT22;39101;53.478;6.158;2023-04-07T06:53:28;6.90;99.90
51500;DHT22;39101;53.478;6.158;2023-04-07T06:56:07;6.90;99.90
51500;DHT22;39101;53.478;6.158;2023-04-07T06:58:34;6.80;99.90
51500;DHT22;39101;53.478;6.158;2023-04-07T07:01:00;6.80;99.90
51500;DHT22;39101;53.478;6.158;2023-04-07T07:03:27;6.80;99.90
51500;DHT22;39101;53.478;6.158;2023-04-07T07:06:02;7.10;99.90
51500;DHT22;39101;53.478;6.158;2023-04-07T07:08:28;6.90;99.90
51500;DHT22;39101;53.478;6.158;2023-04-07T07:10:55;6.90;99.90
51500;DHT22;39101;53.478;6.158;2023-04-07T07:13:22;6.90;99.90
51500;DHT22;39101;53.478;6.158;2023-04-07T07:15:49;7.10;99.90
51500;DHT22;39101;53.478;6.158;2023-04-07T07:18:16;7.00;99.90
51500;DHT22;39101;53.478;6.158;2023-04-07T07:20:42;7.00;99.90
51500;DHT22;39101;53.478;6.158;2023-04-07T07:23:07;7.20;99.90
51500;DHT22;39101;53.478;6.158;2023-04-07T07:25:33;7.10;99.90
51500;DHT22;39101;53.478;6.158;2023-04-07T07:27:59;7.30;99.90
51500;DHT22;39101;53.478;6.158;2023-04-07T07:30:25;7.20;99.90
51500;DHT22;39101;53.478;6.158;2023-04-07T07:32:52;7.30;99.90
51500;DHT22;39101;53.478;6.158;2023-04-07T07:35:21;7.40;99.90
51500;DHT22;39101;53.478;6.158;2023-04-07T07:37:47;7.50;99.90
51500;DHT22;39101;53.478;6.158;2023-04-07T07:40:13;7.40;99.90
51500;DHT22;39101;53.478;6.158;2023-04-07T07:42:40;7.50;99.90
51500;DHT22;39101;53.478;6.158;2023-04-07T07:45:05;7.30;99.90
51500;DHT22;39101;53.478;6.158;2023-04-07T07:47:32;7.60;99.90
51500;DHT22;39101;53.478;6.158;2023-04-07T07:49:57;7.60;99.90
51500;DHT22;39101;53.478;6.158;2023-04-07T07:52:23;7.30;99.90
51500;DHT22;39101;53.478;6.158;2023-04-07T07:54:50;7.60;99.90
51500;DHT22;39101;53.478;6.158;2023-04-07T07:57:16;7.60;99.90
51500;DHT22;39101;53.478;6.158;2023-04-07T07:59:42;7.50;99.90
51500;DHT22;39101;53.478;6.158;2023-04-07T08:02:08;7.60;99.90
51500;DHT22;39101;53.478;6.158;2023-04-07T08:04:35;7.70;99.90
51500;DHT22;39101;53.478;6.158;2023-04-07T08:07:02;7.50;99.90
51500;DHT22;39101;53.478;6.158;2023-04-07T08:09:27;7.80;99.90
51500;DHT22;39101;53.478;6.158;2023-04-07T08:11:53;7.70;99.90
51500;DHT22;39101;53.478;6.158;2023-04-07T08:14:19;7.70;99.90
51500;DHT22;39101;53.478;6.158;2023-04-07T08:16:45;7.70;99.90
51500;DHT22;39101;53.478;6.158;2023-04-07T08:19:11;7.90;99.90
51500;DHT22;39101;53.478;6.158;2023-04-07T08:21:38;7.90;99.90
51500;DHT22;39101;53.478;6.158;2023-04-07T08:24:04;8.00;99.90
51500;DHT22;39101;53.478;6.158;2023-04-07T08:26:30;8.20;99.90
51500;DHT22;39101;53.478;6.158;2023-04-07T08:28:55;8.00;99.90
51500;DHT22;39101;53.478;6.158;2023-04-07T08:31:23;8.10;99.90
51500;DHT22;39101;53.478;6.158;2023-04-07T08:33:48;8.20;99.90
51500;DHT22;39101;53.478;6.158;2023-04-07T08:36:19;8.50;99.90
51500;DHT22;39101;53.478;6.158;2023-04-07T08:38:45;8.40;99.90
51500;DHT22;39101;53.478;6.158;2023-04-07T08:41:12;8.40;99.90
51500;DHT22;39101;53.478;6.158;2023-04-07T08:43:38;8.40;99.90
51500;DHT22;39101;53.478;6.158;2023-04-07T08:46:08;8.50;99.90
51500;DHT22;39101;53.478;6.158;2023-04-07T08:48:36;8.50;99.90
51500;DHT22;39101;53.478;6.158;2023-04-07T08:51:05;8.60;99.90
51500;DHT22;39101;53.478;6.158;2023-04-07T08:53:47;8.70;99.90
51500;DHT22;39101;53.478;6.158;2023-04-07T08:56:19;8.60;99.90
51500;DHT22;39101;53.478;6.158;2023-04-07T08:58:48;8.80;99.90
51500;DHT22;39101;53.478;6.158;2023-04-07T09:01:14;8.80;99.90
51500;DHT22;39101;53.478;6.158;2023-04-07T09:03:45;8.90;99.90
51500;DHT22;39101;53.478;6.158;2023-04-07T09:06:13;8.80;99.90
51500;DHT22;39101;53.478;6.158;2023-04-07T09:08:39;8.90;99.90
51500;DHT22;39101;53.478;6.158;2023-04-07T09:11:05;9.00;99.90
51500;DHT22;39101;53.478;6.158;2023-04-07T09:13:30;8.90;99.90
51500;DHT22;39101;53.478;6.158;2023-04-07T09:15:57;9.20;99.90
51500;DHT22;39101;53.478;6.158;2023-04-07T09:18:23;9.20;99.90
51500;DHT22;39101;53.478;6.158;2023-04-07T09:21:05;9.20;99.90
51500;DHT22;39101;53.478;6.158;2023-04-07T09:23:37;9.50;99.90
51500;DHT22;39101;53.478;6.158;2023-04-07T09:28:58;9.80;99.90
51500;DHT22;39101;53.478;6.158;2023-04-07T09:34:31;10.00;99.90
51500;DHT22;39101;53.478;6.158;2023-04-07T09:36:57;10.30;99.90
51500;DHT22;39101;53.478;6.158;2023-04-07T09:39:23;10.30;99.90
51500;DHT22;39101;53.478;6.158;2023-04-07T09:41:50;10.40;99.90
51500;DHT22;39101;53.478;6.158;2023-04-07T09:44:18;10.50;99.90
51500;DHT22;39101;53.478;6.158;2023-04-07T09:46:54;10.60;99.90
51500;DHT22;39101;53.478;6.158;2023-04-07T09:49:21;10.30;99.90
51500;DHT22;39101;53.478;6.158;2023-04-07T09:52:01;10.20;99.90
51500;DHT22;39101;53.478;6.158;2023-04-07T09:54:34;10.30;99.90
51500;DHT22;39101;53.478;6.158;2023-04-07T09:57:01;10.20;99.90
51500;DHT22;39101;53.478;6.158;2023-04-07T09:59:28;10.30;99.90
51500;DHT22;39101;53.478;6.158;2023-04-07T10:01:54;10.20;99.90
51500;DHT22;39101;53.478;6.158;2023-04-07T10:04:21;10.40;99.90
51500;DHT22;39101;53.478;6.158;2023-04-07T10:06:47;10.20;99.90
51500;DHT22;39101;53.478;6.158;2023-04-07T10:09:13;10.20;99.90
51500;DHT22;39101;53.478;6.158;2023-04-07T10:11:40;10.30;99.90
51500;DHT22;39101;53.478;6.158;2023-04-07T10:14:08;10.50;99.90
51500;DHT22;39101;53.478;6.158;2023-04-07T10:16:36;10.70;99.90
51500;DHT22;39101;53.478;6.158;2023-04-07T10:19:03;10.80;99.90
51500;DHT22;39101;53.478;6.158;2023-04-07T10:21:34;10.70;99.90
51500;DHT22;39101;53.478;6.158;2023-04-07T10:26:49;10.90;99.90
51500;DHT22;39101;53.478;6.158;2023-04-07T10:29:17;11.00;99.90
51500;DHT22;39101;53.478;6.158;2023-04-07T10:31:44;11.00;99.90
51500;DHT22;39101;53.478;6.158;2023-04-07T10:34:11;11.00;99.90
51500;DHT22;39101;53.478;6.158;2023-04-07T10:39:35;11.10;99.90
51500;DHT22;39101;53.478;6.158;2023-04-07T10:42:02;11.10;99.90
51500;DHT22;39101;53.478;6.158;2023-04-07T10:44:48;11.00;99.90
51500;DHT22;39101;53.478;6.158;2023-04-07T10:47:14;11.10;99.90
51500;DHT22;39101;53.478;6.158;2023-04-07T10:52:43;11.20;99.90
51500;DHT22;39101;53.478;6.158;2023-04-07T10:55:30;11.20;99.90
51500;DHT22;39101;53.478;6.158;2023-04-07T11:00:41;11.10;99.90
51500;DHT22;39101;53.478;6.158;2023-04-07T11:03:13;11.00;99.90
51500;DHT22;39101;53.478;6.158;2023-04-07T11:05:39;11.00;99.90
51500;DHT22;39101;53.478;6.158;2023-04-07T11:08:05;11.10;99.90
51500;DHT22;39101;53.478;6.158;2023-04-07T11:10:33;11.00;99.90
51500;DHT22;39101;53.478;6.158;2023-04-07T11:13:04;11.10;99.90
51500;DHT22;39101;53.478;6.158;2023-04-07T11:15:31;11.00;99.90
51500;DHT22;39101;53.478;6.158;2023-04-07T11:20:56;11.30;99.90
51500;DHT22;39101;53.478;6.158;2023-04-07T11:23:25;11.50;99.90
51500;DHT22;39101;53.478;6.158;2023-04-07T11:26:01;11.70;99.90
51500;DHT22;39101;53.478;6.158;2023-04-07T11:28:27;11.80;99.90
51500;DHT22;39101;53.478;6.158;2023-04-07T11:30:54;11.70;99.90
51500;DHT22;39101;53.478;6.158;2023-04-07T11:33:25;11.60;99.90
51500;DHT22;39101;53.478;6.158;2023-04-07T11:35:56;11.60;99.90
51500;DHT22;39101;53.478;6.158;2023-04-07T11:38:24;11.60;99.90
51500;DHT22;39101;53.478;6.158;2023-04-07T11:40:50;11.60;99.90
51500;DHT22;39101;53.478;6.158;2023-04-07T11:43:21;11.60;99.90
51500;DHT22;39101;53.478;6.158;2023-04-07T11:46:16;11.40;99.90
51500;DHT22;39101;53.478;6.158;2023-04-07T11:48:43;11.40;99.90
51500;DHT22;39101;53.478;6.158;2023-04-07T11:51:20;11.40;99.90
51500;DHT22;39101;53.478;6.158;2023-04-07T11:53:53;11.30;99.90
51500;DHT22;39101;53.478;6.158;2023-04-07T11:56:20;11.50;99.90
51500;DHT22;39101;53.478;6.158;2023-04-07T11:58:50;11.50;99.90
51500;DHT22;39101;53.478;6.158;2023-04-07T12:01:16;11.60;99.90
51500;DHT22;39101;53.478;6.158;2023-04-07T12:04:11;11.70;99.90
51500;DHT22;39101;53.478;6.158;2023-04-07T12:06:37;11.90;99.90
51500;DHT22;39101;53.478;6.158;2023-04-07T12:09:06;12.10;99.90
51500;DHT22;39101;53.478;6.158;2023-04-07T12:11:33;12.10;99.90
51500;DHT22;39101;53.478;6.158;2023-04-07T12:13:59;11.90;99.90
51500;DHT22;39101;53.478;6.158;2023-04-07T12:16:25;11.90;99.90
51500;DHT22;39101;53.478;6.158;2023-04-07T12:18:51;11.90;99.90
51500;DHT22;39101;53.478;6.158;2023-04-07T12:21:18;11.80;99.90
51500;DHT22;39101;53.478;6.158;2023-04-07T12:23:45;11.80;99.90
51500;DHT22;39101;53.478;6.158;2023-04-07T12:26:11;11.70;99.90
51500;DHT22;39101;53.478;6.158;2023-04-07T12:28:37;11.60;99.90
51500;DHT22;39101;53.478;6.158;2023-04-07T12:31:03;11.60;99.90
51500;DHT22;39101;53.478;6.158;2023-04-07T12:33:30;11.50;99.90
51500;DHT22;39101;53.478;6.158;2023-04-07T12:35:56;11.60;99.90
51500;DHT22;39101;53.478;6.158;2023-04-07T12:38:23;11.70;99.90
51500;DHT22;39101;53.478;6.158;2023-04-07T12:40:48;11.70;99.90
51500;DHT22;39101;53.478;6.158;2023-04-07T12:43:14;11.90;99.90
51500;DHT22;39101;53.478;6.158;2023-04-07T12:45:40;12.10;99.90
51500;DHT22;39101;53.478;6.158;2023-04-07T12:48:06;12.20;99.90
51500;DHT22;39101;53.478;6.158;2023-04-07T12:50:31;12.40;99.90
51500;DHT22;39101;53.478;6.158;2023-04-07T12:52:57;12.50;99.90
51500;DHT22;39101;53.478;6.158;2023-04-07T12:55:30;12.70;99.90
51500;DHT22;39101;53.478;6.158;2023-04-07T12:57:58;12.80;99.90
51500;DHT22;39101;53.478;6.158;2023-04-07T13:00:24;13.00;99.90
51500;DHT22;39101;53.478;6.158;2023-04-07T13:02:50;13.20;99.90
51500;DHT22;39101;53.478;6.158;2023-04-07T13:05:15;13.20;99.90
51500;DHT22;39101;53.478;6.158;2023-04-07T13:07:43;13.30;99.90
51500;DHT22;39101;53.478;6.158;2023-04-07T13:10:09;13.20;99.90
51500;DHT22;39101;53.478;6.158;2023-04-07T13:12:35;13.30;99.90
51500;DHT22;39101;53.478;6.158;2023-04-07T13:15:02;13.20;99.90
51500;DHT22;39101;53.478;6.158;2023-04-07T13:17:28;13.20;99.90
51500;DHT22;39101;53.478;6.158;2023-04-07T13:19:54;13.20;99.90
51500;DHT22;39101;53.478;6.158;2023-04-07T13:22:20;13.40;99.90
51500;DHT22;39101;53.478;6.158;2023-04-07T13:24:46;13.30;99.90
51500;DHT22;39101;53.478;6.158;2023-04-07T13:27:12;13.30;99.90
51500;DHT22;39101;53.478;6.158;2023-04-07T13:29:38;13.20;99.90
51500;DHT22;39101;53.478;6.158;2023-04-07T13:32:08;13.00;99.90
51500;DHT22;39101;53.478;6.158;2023-04-07T13:34:35;12.90;99.90
51500;DHT22;39101;53.478;6.158;2023-04-07T13:37:01;12.80;99.90
51500;DHT22;39101;53.478;6.158;2023-04-07T13:39:28;12.80;99.90
51500;DHT22;39101;53.478;6.158;2023-04-07T13:41:54;12.60;99.90
51500;DHT22;39101;53.478;6.158;2023-04-07T13:44:20;12.40;99.90
51500;DHT22;39101;53.478;6.158;2023-04-07T13:46:46;12.40;99.90
51500;DHT22;39101;53.478;6.158;2023-04-07T13:49:12;12.40;99.90
51500;DHT22;39101;53.478;6.158;2023-04-07T13:51:39;12.30;99.90
51500;DHT22;39101;53.478;6.158;2023-04-07T13:54:05;12.20;99.90
51500;DHT22;39101;53.478;6.158;2023-04-07T13:56:31;12.10;99.90
51500;DHT22;39101;53.478;6.158;2023-04-07T13:58:56;12.10;99.90
51500;DHT22;39101;53.478;6.158;2023-04-07T14:01:22;12.00;99.90
51500;DHT22;39101;53.478;6.158;2023-04-07T14:03:48;11.90;99.90
51500;DHT22;39101;53.478;6.158;2023-04-07T14:06:14;11.80;99.90
51500;DHT22;39101;53.478;6.158;2023-04-07T14:08:40;11.80;99.90
51500;DHT22;39101;53.478;6.158;2023-04-07T14:11:05;11.80;99.90
51500;DHT22;39101;53.478;6.158;2023-04-07T14:13:31;11.80;99.90
51500;DHT22;39101;53.478;6.158;2023-04-07T14:15:57;11.70;99.90
51500;DHT22;39101;53.478;6.158;2023-04-07T14:18:22;11.80;99.90
51500;DHT22;39101;53.478;6.158;2023-04-07T14:20:49;11.80;99.90
51500;DHT22;39101;53.478;6.158;2023-04-07T14:23:15;11.80;99.90
51500;DHT22;39101;53.478;6.158;2023-04-07T14:25:41;11.90;99.90
51500;DHT22;39101;53.478;6.158;2023-04-07T14:28:07;11.80;99.90
51500;DHT22;39101;53.478;6.158;2023-04-07T14:30:36;11.80;99.90
51500;DHT22;39101;53.478;6.158;2023-04-07T14:33:03;11.80;99.90
51500;DHT22;39101;53.478;6.158;2023-04-07T14:35:29;11.90;99.90
51500;DHT22;39101;53.478;6.158;2023-04-07T14:37:55;11.90;99.90
51500;DHT22;39101;53.478;6.158;2023-04-07T14:40:21;11.80;99.90
51500;DHT22;39101;53.478;6.158;2023-04-07T14:42:46;11.80;99.90
51500;DHT22;39101;53.478;6.158;2023-04-07T14:45:13;11.80;99.90
51500;DHT22;39101;53.478;6.158;2023-04-07T14:47:38;11.80;99.90
51500;DHT22;39101;53.478;6.158;2023-04-07T14:50:05;11.80;99.90
51500;DHT22;39101;53.478;6.158;2023-04-07T14:52:30;11.70;99.90
51500;DHT22;39101;53.478;6.158;2023-04-07T14:54:56;11.70;99.90
51500;DHT22;39101;53.478;6.158;2023-04-07T14:57:22;11.70;99.90
51500;DHT22;39101;53.478;6.158;2023-04-07T14:59:48;11.70;99.90
51500;DHT22;39101;53.478;6.158;2023-04-07T15:02:13;11.70;99.90
51500;DHT22;39101;53.478;6.158;2023-04-07T15:04:39;11.60;99.90
51500;DHT22;39101;53.478;6.158;2023-04-07T15:07:05;11.60;99.90
51500;DHT22;39101;53.478;6.158;2023-04-07T15:09:30;11.60;99.90
51500;DHT22;39101;53.478;6.158;2023-04-07T15:11:56;11.50;99.90
51500;DHT22;39101;53.478;6.158;2023-04-07T15:14:21;11.50;99.90
51500;DHT22;39101;53.478;6.158;2023-04-07T15:16:47;11.50;99.90
51500;DHT22;39101;53.478;6.158;2023-04-07T15:19:15;11.50;99.90
51500;DHT22;39101;53.478;6.158;2023-04-07T15:21:41;11.60;99.90
51500;DHT22;39101;53.478;6.158;2023-04-07T15:24:07;11.60;99.90
51500;DHT22;39101;53.478;6.158;2023-04-07T15:26:32;11.60;99.90
51500;DHT22;39101;53.478;6.158;2023-04-07T15:28:58;11.60;99.90
51500;DHT22;39101;53.478;6.158;2023-04-07T15:31:24;11.60;99.90
51500;DHT22;39101;53.478;6.158;2023-04-07T15:33:51;11.60;99.90
51500;DHT22;39101;53.478;6.158;2023-04-07T15:36:17;11.50;99.90
51500;DHT22;39101;53.478;6.158;2023-04-07T15:38:43;11.50;99.90
51500;DHT22;39101;53.478;6.158;2023-04-07T15:41:11;11.50;99.90
51500;DHT22;39101;53.478;6.158;2023-04-07T15:43:38;11.60;99.90
51500;DHT22;39101;53.478;6.158;2023-04-07T15:46:04;11.60;99.90
51500;DHT22;39101;53.478;6.158;2023-04-07T15:48:29;11.60;99.90
51500;DHT22;39101;53.478;6.158;2023-04-07T15:50:55;11.60;99.90
51500;DHT22;39101;53.478;6.158;2023-04-07T15:53:21;11.60;99.90
51500;DHT22;39101;53.478;6.158;2023-04-07T15:55:46;11.60;99.90
51500;DHT22;39101;53.478;6.158;2023-04-07T15:58:12;11.70;99.90
51500;DHT22;39101;53.478;6.158;2023-04-07T16:00:38;11.90;99.90
51500;DHT22;39101;53.478;6.158;2023-04-07T16:03:04;11.90;99.90